Jupiter Point, Connecticut
Current Conditions -  °F | °C
As of 4:56 AM on Saturday 25 Oct 2014 (Local Time) from KGON Reporting Station
Clear Clear  
Wind Chill: 41°   Ceiling: Unl
Heat Index: 41°   Visibility: 10mi
Dew Point: 40°   Wind: 0mph
Humidity: 96%   Direction: NA
Pressure: 29.8"   Gusts: NA
Location:  41.3595°N, 72.0439°W
Report Text: KGON 250856Z AUTO 00000KT 10SM CLR 05/04 A2980 RMK AO2 SLP091 T00500044 53007
Loading
Personal Weather Stations






























Interactive Weather Map
Tropical Storm Tracking
New forecast layout! Learn more

10-Day Weather Forecast

Advertisements
Track Severe Weather on mobile